createdAt,value
2023-02-19T00:03:54.676Z,8.30
2023-02-19T00:08:55.394Z,7.00
2023-02-19T00:13:56.127Z,6.80
2023-02-19T00:18:56.881Z,6.50
2023-02-19T00:23:57.618Z,9.20
2023-02-19T00:28:58.362Z,7.30
2023-02-19T00:33:59.092Z,7.70
2023-02-19T00:38:59.808Z,6.30
2023-02-19T00:44:01.221Z,6.70
2023-02-19T00:49:01.439Z,6.50
2023-02-19T00:54:02.168Z,6.00
2023-02-19T00:59:02.892Z,5.70
2023-02-19T01:04:06.422Z,5.20
2023-02-19T01:09:04.280Z,5.90
2023-02-19T01:14:05.189Z,5.90
2023-02-19T01:19:05.892Z,6.10
2023-02-19T01:24:06.599Z,6.40
2023-02-19T01:29:07.370Z,6.50
2023-02-19T01:34:08.108Z,5.80
2023-02-19T01:39:15.863Z,6.50
2023-02-19T01:44:09.573Z,6.00
2023-02-19T01:49:10.308Z,6.60
2023-02-19T01:54:10.995Z,8.50
2023-02-19T01:59:11.710Z,7.30
2023-02-19T02:04:12.421Z,9.90
2023-02-19T02:09:13.193Z,8.80
2023-02-19T02:14:13.886Z,10.50
2023-02-19T02:19:14.596Z,10.70
2023-02-19T02:24:15.312Z,9.60
2023-02-19T02:29:16.051Z,9.70
2023-02-19T02:34:16.753Z,8.50
2023-02-19T02:39:17.476Z,10.00
2023-02-19T02:44:18.194Z,8.90
2023-02-19T02:49:18.933Z,10.60
2023-02-19T02:54:19.653Z,11.80
2023-02-19T02:59:20.387Z,11.50
2023-02-19T03:04:21.103Z,11.50
2023-02-19T03:09:21.818Z,11.10
2023-02-19T03:14:22.532Z,10.20
2023-02-19T03:19:23.296Z,11.80
2023-02-19T03:24:24.007Z,13.40
2023-02-19T03:29:24.730Z,11.50
2023-02-19T03:34:26.257Z,13.70
2023-02-19T03:39:25.975Z,11.70
2023-02-19T03:44:26.697Z,9.90
2023-02-19T03:49:27.439Z,11.90
2023-02-19T03:54:28.150Z,11.00
2023-02-19T03:59:28.872Z,10.00
2023-02-19T04:04:29.626Z,9.00
2023-02-19T04:09:30.328Z,10.40
2023-02-19T04:14:31.038Z,11.30
2023-02-19T04:19:31.765Z,10.90
2023-02-19T04:24:32.488Z,10.70
2023-02-19T04:29:33.201Z,10.60
2023-02-19T04:34:33.909Z,10.60
2023-02-19T04:39:34.622Z,10.20
2023-02-19T04:44:35.339Z,10.10
2023-02-19T04:49:36.062Z,8.90
2023-02-19T04:54:36.803Z,10.20
2023-02-19T04:59:37.533Z,8.70
2023-02-19T05:04:38.305Z,9.30
2023-02-19T05:09:38.978Z,8.60
2023-02-19T05:14:39.692Z,10.10
2023-02-19T05:19:40.415Z,9.70
2023-02-19T05:24:41.137Z,9.70
2023-02-19T05:29:41.857Z,8.60
2023-02-19T05:34:42.583Z,9.50
2023-02-19T05:39:43.326Z,10.60
2023-02-19T05:44:44.028Z,10.00
2023-02-19T05:49:44.747Z,10.60
2023-02-19T05:54:45.427Z,11.00
2023-02-19T05:59:46.119Z,10.20
2023-02-19T06:04:46.762Z,9.80
2023-02-19T06:09:47.426Z,9.60
2023-02-19T06:14:48.100Z,9.80
2023-02-19T06:19:48.754Z,11.20
2023-02-19T06:24:49.422Z,9.10
2023-02-19T06:29:50.085Z,9.10
2023-02-19T06:34:50.753Z,8.50
2023-02-19T06:39:51.428Z,12.30
2023-02-19T06:44:52.089Z,12.90
2023-02-19T06:49:52.760Z,10.90
2023-02-19T06:54:53.425Z,12.50
2023-02-19T06:59:54.091Z,9.70
2023-02-19T07:04:54.761Z,9.40
2023-02-19T07:09:55.425Z,9.90
2023-02-19T07:14:56.102Z,9.90
2023-02-19T07:19:56.761Z,10.50
2023-02-19T07:24:57.422Z,9.80
2023-02-19T07:29:58.088Z,11.70
2023-02-19T07:34:58.732Z,11.70
2023-02-19T07:39:59.398Z,9.20
2023-02-19T07:45:00.711Z,12.30
2023-02-19T07:50:00.912Z,12.70
2023-02-19T07:55:01.585Z,11.80
2023-02-19T08:00:02.256Z,9.80
2023-02-19T08:05:02.919Z,9.20
2023-02-19T08:10:03.573Z,10.00
2023-02-19T08:15:04.234Z,13.70
2023-02-19T08:20:04.907Z,13.20
2023-02-19T08:25:12.582Z,9.60
2023-02-19T08:30:06.246Z,11.90
2023-02-19T08:35:06.778Z,10.60
2023-02-19T08:40:07.443Z,11.70
2023-02-19T08:45:07.904Z,10.40
2023-02-19T08:50:08.565Z,10.80
2023-02-19T08:55:09.218Z,11.20
2023-02-19T09:00:09.995Z,13.20
2023-02-19T09:05:10.654Z,13.10
2023-02-19T09:10:11.318Z,10.70
2023-02-19T09:15:11.988Z,12.80
2023-02-19T09:20:12.649Z,11.90
2023-02-19T09:25:13.322Z,10.40
2023-02-19T09:30:14.024Z,13.10
2023-02-19T09:35:14.640Z,12.20
2023-02-19T09:40:15.303Z,10.40
2023-02-19T09:45:15.967Z,13.10
2023-02-19T09:50:16.617Z,15.10
2023-02-19T09:55:17.284Z,11.80
2023-02-19T10:00:18.100Z,15.40
2023-02-19T10:05:18.875Z,14.00
2023-02-19T10:10:19.565Z,14.90
2023-02-19T10:15:20.212Z,12.60
2023-02-19T10:20:20.874Z,9.00
2023-02-19T10:25:21.539Z,11.90
2023-02-19T10:30:22.219Z,11.90
2023-02-19T10:35:22.912Z,13.90
2023-02-19T10:40:23.604Z,11.60
2023-02-19T10:45:24.299Z,10.60
2023-02-19T10:50:24.931Z,11.30
2023-02-19T10:55:25.593Z,10.20
2023-02-19T11:00:26.247Z,11.90
2023-02-19T11:05:26.911Z,15.30
2023-02-19T11:10:27.587Z,17.70
2023-02-19T11:15:28.254Z,18.70
2023-02-19T11:20:28.916Z,12.30
2023-02-19T11:25:29.582Z,17.20
2023-02-19T11:30:30.316Z,11.30
2023-02-19T11:35:30.960Z,8.20
2023-02-19T11:40:31.622Z,8.90
2023-02-19T11:45:32.288Z,9.50
2023-02-19T11:50:32.953Z,9.40
2023-02-19T11:55:33.612Z,8.50
2023-02-19T12:00:34.274Z,9.20
2023-02-19T12:05:34.944Z,10.20
2023-02-19T12:10:35.602Z,8.80
2023-02-19T12:15:36.269Z,10.20
2023-02-19T12:20:36.920Z,9.40
2023-02-19T12:25:37.578Z,9.70
2023-02-19T12:30:38.391Z,7.20
2023-02-19T12:35:39.012Z,10.30
2023-02-19T12:40:39.675Z,8.10
2023-02-19T12:45:40.394Z,8.20
2023-02-19T12:50:41.029Z,8.40
2023-02-19T12:55:41.710Z,8.40
2023-02-19T13:00:42.392Z,8.00
2023-02-19T13:05:43.057Z,8.70
2023-02-19T13:10:43.725Z,7.80
2023-02-19T13:15:44.415Z,8.80
2023-02-19T13:20:45.090Z,7.10
2023-02-19T13:25:45.756Z,7.20
2023-02-19T13:30:46.678Z,7.80
2023-02-19T13:35:46.879Z,8.40
2023-02-19T13:40:47.542Z,8.50
2023-02-19T13:45:48.300Z,8.00
2023-02-19T13:50:48.928Z,8.50
2023-02-19T13:55:49.603Z,7.90
2023-02-19T14:00:50.286Z,6.70
2023-02-19T14:05:50.960Z,7.30
2023-02-19T14:10:51.648Z,7.80
2023-02-19T14:15:52.564Z,8.20
2023-02-19T14:20:53.224Z,9.50
2023-02-19T14:25:53.949Z,8.20
2023-02-19T14:30:54.726Z,8.00
2023-02-19T14:35:55.489Z,8.80
2023-02-19T14:40:56.150Z,6.50
2023-02-19T14:45:56.877Z,7.80
2023-02-19T14:50:57.495Z,8.50
2023-02-19T14:55:58.173Z,8.00
2023-02-19T15:00:58.849Z,8.30
2023-02-19T15:05:59.516Z,8.40
2023-02-19T15:11:00.192Z,8.10
2023-02-19T15:16:00.926Z,9.30
2023-02-19T15:21:01.564Z,8.10
2023-02-19T15:26:02.243Z,8.90
2023-02-19T15:31:02.978Z,7.50
2023-02-19T15:36:03.584Z,6.60
2023-02-19T15:41:04.275Z,7.20
2023-02-19T15:46:04.933Z,6.90
2023-02-19T15:51:05.585Z,6.50
2023-02-19T15:56:06.245Z,6.40
2023-02-19T16:01:06.930Z,7.10
2023-02-19T16:06:07.618Z,7.60
2023-02-19T16:11:08.287Z,7.50
2023-02-19T16:16:08.976Z,8.50
2023-02-19T16:21:09.815Z,9.60
2023-02-19T16:26:10.074Z,10.00
2023-02-19T16:31:11.065Z,8.90
2023-02-19T16:36:11.389Z,8.60
2023-02-19T16:41:12.335Z,7.40
2023-02-19T16:46:12.574Z,7.30
2023-02-19T16:51:13.548Z,9.40
2023-02-19T16:56:13.745Z,8.60
2023-02-19T17:01:14.835Z,11.90
2023-02-19T17:06:15.095Z,10.60
2023-02-19T17:11:15.820Z,12.50
2023-02-19T17:16:16.604Z,9.90
2023-02-19T17:21:17.274Z,10.60
2023-02-19T17:26:18.018Z,10.40
2023-02-19T17:31:18.838Z,10.80
2023-02-19T17:36:19.512Z,8.50
2023-02-19T17:41:20.253Z,9.70
2023-02-19T17:46:20.961Z,9.20
2023-02-19T17:51:21.681Z,13.50
2023-02-19T17:56:22.390Z,12.40
2023-02-19T18:01:23.258Z,12.50
2023-02-19T18:06:23.936Z,11.70
2023-02-19T18:11:24.664Z,14.40
2023-02-19T18:16:25.362Z,13.20
2023-02-19T18:21:26.056Z,14.90
2023-02-19T18:26:26.760Z,14.10
2023-02-19T18:31:27.620Z,15.40
2023-02-19T18:36:28.361Z,19.30
2023-02-19T18:41:29.079Z,15.50
2023-02-19T18:46:32.038Z,14.50
2023-02-19T18:51:30.408Z,11.70
2023-02-19T18:56:31.152Z,14.40
2023-02-19T19:01:31.902Z,13.90
2023-02-19T19:06:32.587Z,11.60
2023-02-19T19:11:33.319Z,12.00
2023-02-19T19:16:33.992Z,10.00
2023-02-19T19:21:34.712Z,12.00
2023-02-19T19:26:35.429Z,10.50
2023-02-19T19:31:36.483Z,11.20
2023-02-19T19:36:37.205Z,11.20
2023-02-19T19:41:37.957Z,10.40
2023-02-19T19:46:38.707Z,13.10
2023-02-19T19:51:39.404Z,12.30
2023-02-19T19:56:40.124Z,11.20
2023-02-19T20:01:40.887Z,12.10
2023-02-19T20:06:41.572Z,12.90
2023-02-19T20:11:42.284Z,9.70
2023-02-19T20:16:44.711Z,9.70
2023-02-19T20:21:43.930Z,13.80
2023-02-19T20:26:44.647Z,11.00
2023-02-19T20:31:45.489Z,11.70
2023-02-19T20:36:46.202Z,13.70
2023-02-19T20:41:46.937Z,12.10
2023-02-19T20:46:47.715Z,13.10
2023-02-19T20:51:48.390Z,11.90
2023-02-19T20:56:49.114Z,11.90
2023-02-19T21:01:49.880Z,10.60
2023-02-19T21:06:50.547Z,12.20
2023-02-19T21:11:51.255Z,11.00
2023-02-19T21:16:52.001Z,11.40
2023-02-19T21:21:52.713Z,11.60
2023-02-19T21:26:53.442Z,12.10
2023-02-19T21:31:54.265Z,9.80
2023-02-19T21:36:54.960Z,11.90
2023-02-19T21:41:55.697Z,10.40
2023-02-19T21:46:56.450Z,11.00
2023-02-19T21:51:57.166Z,15.00
2023-02-19T21:56:57.894Z,11.50
2023-02-19T22:01:58.604Z,10.70
2023-02-19T22:06:59.332Z,13.60
2023-02-19T22:12:00.056Z,10.90
2023-02-19T22:17:00.794Z,9.70
2023-02-19T22:22:01.513Z,13.20
2023-02-19T22:27:02.246Z,11.70
2023-02-19T22:32:03.088Z,10.70
2023-02-19T22:37:03.871Z,14.00
2023-02-19T22:42:04.574Z,11.70
2023-02-19T22:47:05.290Z,11.00
2023-02-19T22:52:06.069Z,9.80
2023-02-19T22:57:06.759Z,8.80
2023-02-19T23:02:07.473Z,10.70
2023-02-19T23:07:15.208Z,9.10
2023-02-19T23:12:08.906Z,9.40
2023-02-19T23:17:09.633Z,12.20
2023-02-19T23:22:10.347Z,10.10
2023-02-19T23:27:11.099Z,10.40
2023-02-19T23:32:11.863Z,7.90
2023-02-19T23:37:12.649Z,10.20
2023-02-19T23:42:13.320Z,11.40
2023-02-19T23:47:14.057Z,10.70
2023-02-19T23:52:14.772Z,11.60
2023-02-19T23:57:15.507Z,10.90
